CheckWX is a tool to help pilots better visualize weather data.  It is not intended as a substitute for an official pre-flight weather briefing.

12:24:21 UTC

CYCK METAR
Chatham Kent Airport
Chatham-Kent, Ontario, Canada
Current

24 mins ago

CYCK 181200Z AUTO 01008KT 3SM -SN OVC031 M08/M09 A2999 RMK SLP168
Observed
Feb-18 @ 12:00 UTC
Wind
  • 010° at 8 KTS
Visibility
3 SM
Flight Rules
MVFR
Conditions
Light Snow
Cloud Levels
  • Overcast at 3,100' AGL
Temperature
-8°C / 18°F
Dewpoint
-9°C / 16°F
Humidity
93%
Altimeter
29.99" Hg
Pressure
1016.8 hPa
Previous

43 mins ago

CYCK 181141Z AUTO 01009KT 3SM -SN OVC029 M08/M09 A2998 RMK SLP164
Observed
Feb-18 @ 11:41 UTC
Wind
  • 010° at 9 KTS
Visibility
3 SM
Flight Rules
MVFR
Conditions
Light Snow
Cloud Levels
  • Overcast at 2,900' AGL
Temperature
-8°C / 18°F
Dewpoint
-9°C / 16°F
Humidity
93%
Altimeter
29.98" Hg
Pressure
1016.4 hPa
Previous

58 mins ago

CYCK 181126Z AUTO 01011KT 2 1/2SM -SN OVC027 M08/M09 A2997 RMK SLP160
Observed
Feb-18 @ 11:26 UTC
Wind
  • 010° at 11 KTS
Visibility
2 1/2 SM
Flight Rules
IFR
Conditions
Light Snow
Cloud Levels
  • Overcast at 2,700' AGL
Temperature
-8°C / 18°F
Dewpoint
-9°C / 16°F
Humidity
93%
Altimeter
29.97" Hg
Pressure
1016 hPa